Time,TemperatureF,DewpointF,PressureIn,WindDirection,WindDirectionDegrees,WindSpeedMPH,WindSpeedGustMPH,Humidity,HourlyPrecipIn,Conditions,Clouds,dailyrainin,SolarRadiationWatts/m^2,SoftwareType,DateUTC
2013-02-07 00:01:00,44.5,38.7,29.74,East,93,9.0,15.0,80,0.00,RA,,0.00,0.0,WeatherDisplay:10.37,2013-02-07 08:01:00,
2013-02-07 00:06:00,44.9,38.5,29.74,ESE,106,10.2,13.8,78,0.00,RA,,0.00,0.0,WeatherDisplay:10.37,2013-02-07 08:06:00,
2013-02-07 00:11:00,45.0,38.6,29.74,East,92,16.3,19.6,78,0.00,CLR,,0.00,0.0,WeatherDisplay:10.37,2013-02-07 08:11:00,
2013-02-07 00:16:00,45.1,38.7,29.74,ESE,113,9.8,13.8,78,0.00,CLR,,0.00,0.0,WeatherDisplay:10.37,2013-02-07 08:16:00,
2013-02-07 00:21:00,44.9,38.8,29.74,ESE,104,12.9,17.3,79,0.00,CLR,,0.00,0.0,WeatherDisplay:10.37,2013-02-07 08:21:00,
2013-02-07 00:26:00,44.5,39.1,29.74,ESE,102,21.9,21.9,81,0.00,CLR,,0.00,0.0,WeatherDisplay:10.37,2013-02-07 08:26:00,
2013-02-07 00:31:00,44.5,39.1,29.74,SE,130,29.4,29.4,81,0.00,CLR,,0.00,0.0,WeatherDisplay:10.37,2013-02-07 08:31:00,
2013-02-07 00:36:00,45.2,39.1,29.74,SE,130,26.6,26.9,79,0.00,CLR,,0.00,0.0,WeatherDisplay:10.37,2013-02-07 08:36:00,
2013-02-07 00:41:00,45.8,39.3,29.74,SE,130,31.8,31.8,78,0.00,CLR,,0.00,0.0,WeatherDisplay:10.37,2013-02-07 08:41:00,
2013-02-07 00:46:00,46.1,39.3,29.74,SE,145,28.9,28.9,77,0.00,FEW,,0.00,0.0,WeatherDisplay:10.37,2013-02-07 08:46:00,
2013-02-07 00:51:00,46.2,39.4,29.74,SE,134,28.5,32.2,77,0.00,FEW,,0.00,0.0,WeatherDisplay:10.37,2013-02-07 08:51:00,
2013-02-07 00:56:00,46.3,39.5,29.74,SE,132,29.9,31.1,77,0.00,FEW,,0.00,0.0,WeatherDisplay:10.37,2013-02-07 08:56:00,
2013-02-07 01:01:00,46.5,39.7,29.74,SE,138,29.2,33.4,77,0.00,FEW,,0.00,0.0,WeatherDisplay:10.37,2013-02-07 09:01:00,
2013-02-07 01:06:00,46.5,39.7,29.74,SE,133,31.9,31.9,77,0.00,FEW,,0.00,0.0,WeatherDisplay:10.37,2013-02-07 09:06:00,
2013-02-07 01:11:00,46.5,39.7,29.74,SE,132,27.5,33.4,77,0.00,FEW,,0.00,0.0,WeatherDisplay:10.37,2013-02-07 09:11:00,
2013-02-07 01:16:00,46.4,39.9,29.74,SE,133,27.0,27.0,78,0.00,BKN,,0.00,0.0,WeatherDisplay:10.37,2013-02-07 09:16:00,
2013-02-07 01:21:00,46.3,39.8,29.74,SE,132,30.3,36.8,78,0.00,BKN,,0.00,0.0,WeatherDisplay:10.37,2013-02-07 09:21:00,
2013-02-07 01:26:00,46.1,40.0,29.74,ESE,119,29.7,33.4,79,0.00,BKN,,0.00,0.0,WeatherDisplay:10.37,2013-02-07 09:26:00,
2013-02-07 01:31:00,45.9,39.8,29.73,SE,134,29.8,31.1,79,0.00,BKN,,0.00,0.0,WeatherDisplay:10.37,2013-02-07 09:31:00,
2013-02-07 01:36:00,45.8,40.0,29.73,ESE,123,31.7,32.2,80,0.00,BKN,,0.00,0.0,WeatherDisplay:10.37,2013-02-07 09:36:00,
2013-02-07 01:41:00,45.8,40.0,29.73,SE,138,30.0,32.5,80,0.00,BKN,,0.00,0.0,WeatherDisplay:10.37,2013-02-07 09:41:00,
2013-02-07 01:46:00,45.7,39.9,29.73,SE,144,30.1,32.5,80,0.00,OVC,,0.00,0.0,WeatherDisplay:10.37,2013-02-07 09:46:00,
2013-02-07 01:51:00,45.7,39.9,29.75,SE,138,27.5,31.1,80,0.00,OVC,,0.00,0.0,WeatherDisplay:10.37,2013-02-07 09:51:00,
2013-02-07 01:56:00,45.7,39.9,29.75,SE,134,30.3,32.2,80,0.00,OVC,,0.00,0.0,WeatherDisplay:10.37,2013-02-07 09:56:00,
2013-02-07 02:01:00,45.6,40.1,29.75,SSE,152,24.9,26.5,81,0.00,BKN,,0.00,0.0,WeatherDisplay:10.37,2013-02-07 10:01:00,
2013-02-07 02:06:00,45.4,39.9,29.76,SE,133,34.4,35.7,81,0.00,BKN,,0.00,0.0,WeatherDisplay:10.37,2013-02-07 10:06:00,
2013-02-07 02:11:00,45.3,40.1,29.75,SE,129,31.9,34.7,82,0.00,BKN,,0.00,0.0,WeatherDisplay:10.37,2013-02-07 10:11:00,
2013-02-07 02:16:00,45.0,40.2,29.74,ESE,123,37.9,37.9,83,0.00,CLR,,0.00,0.0,WeatherDisplay:10.37,2013-02-07 10:16:00,
2013-02-07 02:21:00,44.7,40.2,29.73,SE,138,37.2,39.1,84,0.00,CLR,,0.00,0.0,WeatherDisplay:10.37,2013-02-07 10:21:00,
2013-02-07 02:26:00,44.5,40.0,29.74,SE,127,41.6,42.6,84,0.00,CLR,,0.00,0.0,WeatherDisplay:10.37,2013-02-07 10:26:00,
2013-02-07 02:31:00,44.4,40.2,29.74,SE,137,39.3,41.4,85,0.00,CLR,,0.00,0.0,WeatherDisplay:10.37,2013-02-07 10:31:00,
2013-02-07 02:36:00,44.3,40.1,29.74,SE,132,39.9,40.3,85,0.00,CLR,,0.00,0.0,WeatherDisplay:10.37,2013-02-07 10:36:00,
2013-02-07 02:41:00,44.1,39.9,29.74,SE,130,38.5,42.6,85,0.00,CLR,,0.00,0.0,WeatherDisplay:10.37,2013-02-07 10:41:00,
2013-02-07 02:47:00,44.0,40.1,29.73,SE,134,39.0,41.4,86,0.00,-RA,,0.00,0.0,WeatherDisplay:10.37,2013-02-07 10:47:00,
2013-02-07 02:52:00,43.9,40.0,29.74,SE,141,36.9,38.0,86,0.00,-RA,,0.00,0.0,WeatherDisplay:10.37,2013-02-07 10:52:00,
2013-02-07 02:57:00,43.9,39.7,29.74,SE,132,33.5,33.5,85,0.00,-RA,,0.00,0.0,WeatherDisplay:10.37,2013-02-07 10:57:00,
2013-02-07 03:02:00,44.0,39.5,29.74,ESE,114,37.1,41.4,84,0.00,CLR,,0.00,0.0,WeatherDisplay:10.37,2013-02-07 11:02:00,
2013-02-07 03:07:00,44.0,39.5,29.75,SE,146,29.8,33.4,84,0.00,CLR,,0.00,0.0,WeatherDisplay:10.37,2013-02-07 11:07:00,
2013-02-07 03:12:00,44.0,39.5,29.75,SE,144,30.9,33.4,84,0.00,CLR,,0.00,0.0,WeatherDisplay:10.37,2013-02-07 11:12:00,
2013-02-07 03:17:00,43.9,39.4,29.75,SSE,163,23.8,25.3,84,0.00,SCT,,0.00,0.0,WeatherDisplay:10.37,2013-02-07 11:17:00,
2013-02-07 03:22:00,43.8,39.6,29.75,SE,127,24.1,28.8,85,0.00,SCT,,0.00,0.0,WeatherDisplay:10.37,2013-02-07 11:22:00,
2013-02-07 03:27:00,43.7,39.2,29.75,SSE,150,29.4,33.4,84,0.00,SCT,,0.00,0.0,WeatherDisplay:10.37,2013-02-07 11:27:00,
2013-02-07 03:32:00,43.6,39.4,29.75,SE,145,29.2,33.6,85,0.00,SCT,,0.00,0.0,WeatherDisplay:10.37,2013-02-07 11:32:00,
2013-02-07 03:37:00,43.5,39.3,29.75,SSE,153,24.9,29.9,85,0.00,SCT,,0.00,0.0,WeatherDisplay:10.37,2013-02-07 11:37:00,
2013-02-07 03:42:00,43.5,40.5,29.75,SE,136,25.2,28.8,89,0.00,SCT,,0.00,0.0,WeatherDisplay:10.37,2013-02-07 11:42:00,
2013-02-07 03:47:00,43.4,39.2,29.76,SSE,152,31.4,38.0,85,0.00,SCT,,0.00,0.0,WeatherDisplay:10.37,2013-02-07 11:47:00,
2013-02-07 03:52:00,43.3,38.8,29.76,SE,138,33.7,38.0,84,0.00,SCT,,0.00,0.0,WeatherDisplay:10.37,2013-02-07 11:52:00,
2013-02-07 03:55:00,43.7,38.9,29.82,SSE,160,28.0,37.0,83,0.00,CLR,,0.00,0.0,WeatherDisplay:10.37,2013-02-07 11:55:00,
2013-02-07 03:57:00,43.3,38.8,29.76,SSE,165,26.9,33.6,84,0.00,SCT,,0.00,0.0,WeatherDisplay:10.37,2013-02-07 11:57:00,
2013-02-07 04:02:00,43.2,38.7,29.77,SE,144,34.5,40.3,84,0.00,FEW,,0.00,0.0,WeatherDisplay:10.37,2013-02-07 12:02:00,
2013-02-07 04:07:00,43.2,38.7,29.76,SSE,151,29.4,38.0,84,0.00,FEW,,0.00,0.0,WeatherDisplay:10.37,2013-02-07 12:07:00,
2013-02-07 04:12:00,43.2,38.7,29.77,SSE,166,33.5,33.5,84,0.00,FEW,,0.00,0.0,WeatherDisplay:10.37,2013-02-07 12:12:00,
2013-02-07 04:17:00,43.2,39.0,29.78,SSE,162,27.5,36.8,85,0.00,BKN,,0.00,0.0,WeatherDisplay:10.37,2013-02-07 12:17:00,
2013-02-07 04:22:00,43.2,39.0,29.79,South,175,28.8,35.7,85,0.00,BKN,,0.00,0.0,WeatherDisplay:10.37,2013-02-07 12:22:00,
2013-02-07 04:27:00,43.4,39.2,29.80,SE,146,30.0,30.0,85,0.00,BKN,,0.00,0.0,WeatherDisplay:10.37,2013-02-07 12:27:00,
2013-02-07 04:32:00,43.4,38.9,29.80,SSE,157,28.8,31.4,84,0.00,BKN,,0.00,0.0,WeatherDisplay:10.37,2013-02-07 12:32:00,
2013-02-07 04:37:00,43.5,39.0,29.81,SSE,165,32.9,36.8,84,0.00,BKN,,0.00,0.0,WeatherDisplay:10.37,2013-02-07 12:37:00,
2013-02-07 04:42:00,43.5,39.0,29.81,SSE,155,26.2,31.1,84,0.00,BKN,,0.00,0.0,WeatherDisplay:10.37,2013-02-07 12:42:00,
2013-02-07 04:47:00,43.6,39.1,29.82,SE,140,29.4,40.3,84,0.00,OVC,,0.00,0.0,WeatherDisplay:10.37,2013-02-07 12:47:00,
2013-02-07 04:52:00,43.7,38.9,29.82,SSE,157,21.4,33.4,83,0.00,OVC,,0.00,0.0,WeatherDisplay:10.37,2013-02-07 12:52:00,
2013-02-07 04:57:00,43.7,38.9,29.82,SSE,150,31.6,31.6,83,0.00,OVC,,0.00,0.0,WeatherDisplay:10.37,2013-02-07 12:57:00,
2013-02-07 05:02:00,43.7,38.9,29.83,South,169,22.9,25.3,83,0.00,OVC,,0.00,0.0,WeatherDisplay:10.37,2013-02-07 13:02:00,
2013-02-07 05:07:00,43.7,38.9,29.83,South,173,26.5,33.4,83,0.00,OVC,,0.00,0.0,WeatherDisplay:10.37,2013-02-07 13:07:00,
2013-02-07 05:12:00,43.7,38.9,29.84,SSE,161,33.0,36.8,83,0.00,OVC,,0.00,0.0,WeatherDisplay:10.37,2013-02-07 13:12:00,
2013-02-07 05:17:00,43.7,38.9,29.84,SSE,159,26.4,34.5,83,0.00,OVC,,0.00,0.0,WeatherDisplay:10.37,2013-02-07 13:17:00,
2013-02-07 05:22:00,43.7,39.2,29.84,SSE,166,28.2,32.2,84,0.00,OVC,,0.00,0.0,WeatherDisplay:10.37,2013-02-07 13:22:00,
2013-02-07 05:27:00,43.6,39.1,29.85,SSE,163,22.2,25.3,84,0.00,OVC,,0.00,0.0,WeatherDisplay:10.37,2013-02-07 13:27:00,
2013-02-07 05:32:00,43.6,39.1,29.85,SSE,166,31.7,36.8,84,0.00,OVC,,0.00,0.0,WeatherDisplay:10.37,2013-02-07 13:32:00,
2013-02-07 05:37:00,43.5,39.0,29.85,SSE,157,29.2,29.9,84,0.00,OVC,,0.00,0.0,WeatherDisplay:10.37,2013-02-07 13:37:00,
2013-02-07 05:42:00,43.5,39.0,29.85,South,179,22.7,29.9,84,0.00,OVC,,0.00,0.0,WeatherDisplay:10.37,2013-02-07 13:42:00,
2013-02-07 05:47:00,43.4,38.9,29.86,SSE,163,33.7,33.7,84,0.00,OVC,,0.00,0.0,WeatherDisplay:10.37,2013-02-07 13:47:00,
2013-02-07 05:52:00,43.3,39.1,29.86,SSE,155,23.8,27.6,85,0.00,OVC,,0.00,0.0,WeatherDisplay:10.37,2013-02-07 13:52:00,
2013-02-07 05:57:00,43.3,39.1,29.86,SSE,150,27.1,36.8,85,0.00,OVC,,0.00,0.0,WeatherDisplay:10.37,2013-02-07 13:57:00,
2013-02-07 06:02:00,43.2,38.7,29.86,South,180,26.8,31.1,84,0.00,OVC,,0.00,0.0,WeatherDisplay:10.37,2013-02-07 14:02:00,
2013-02-07 06:07:00,43.2,39.0,29.87,SSE,161,25.1,26.5,85,0.00,OVC,,0.00,0.0,WeatherDisplay:10.37,2013-02-07 14:07:00,
2013-02-07 06:12:00,43.2,39.0,29.87,South,180,22.5,27.6,85,0.00,OVC,,0.00,0.0,WeatherDisplay:10.37,2013-02-07 14:12:00,
2013-02-07 06:17:00,43.2,39.0,29.88,SSE,159,24.8,31.1,85,0.00,OVC,,0.00,0.0,WeatherDisplay:10.37,2013-02-07 14:17:00,
2013-02-07 06:22:00,43.1,38.9,29.88,SSE,165,20.0,28.8,85,0.00,OVC,,0.00,0.0,WeatherDisplay:10.37,2013-02-07 14:22:00,
2013-02-07 06:27:00,43.0,38.8,29.88,SSE,158,22.9,26.5,85,0.00,OVC,,0.00,0.0,WeatherDisplay:10.37,2013-02-07 14:27:00,
2013-02-07 06:32:00,43.0,38.8,29.88,SSE,150,21.3,28.0,85,0.00,OVC,,0.00,0.0,WeatherDisplay:10.37,2013-02-07 14:32:00,
2013-02-07 06:37:00,42.9,38.7,29.88,SSE,163,21.9,24.2,85,0.00,OVC,,0.00,0.0,WeatherDisplay:10.37,2013-02-07 14:37:00,
2013-02-07 06:42:00,42.9,38.7,29.89,SSE,155,21.5,23.0,85,0.00,OVC,,0.00,0.0,WeatherDisplay:10.37,2013-02-07 14:42:00,
2013-02-07 06:47:00,42.9,38.7,29.89,SSE,148,19.3,21.9,85,0.00,OVC,,0.00,0.0,WeatherDisplay:10.37,2013-02-07 14:47:00,
2013-02-07 06:52:00,42.9,38.4,29.89,SSE,161,21.9,26.5,84,0.00,OVC,,0.00,0.0,WeatherDisplay:10.37,2013-02-07 14:52:00,
2013-02-07 06:57:00,42.9,38.4,29.89,SSE,160,23.8,24.2,84,0.00,OVC,,0.00,0.0,WeatherDisplay:10.37,2013-02-07 14:57:00,
2013-02-07 07:02:00,42.9,38.4,29.90,South,171,20.8,25.3,84,0.00,BKN,,0.00,0.0,WeatherDisplay:10.37,2013-02-07 15:02:00,
2013-02-07 07:07:00,42.8,38.3,29.90,SSE,155,22.6,25.3,84,0.00,BKN,,0.00,0.0,WeatherDisplay:10.37,2013-02-07 15:07:00,
2013-02-07 07:12:00,42.7,38.2,29.90,SE,145,20.6,26.9,84,0.00,BKN,,0.00,0.0,WeatherDisplay:10.37,2013-02-07 15:12:00,
2013-02-07 07:18:00,42.7,38.5,29.90,SSE,163,23.4,24.2,85,0.00,FEW,,0.00,0.0,WeatherDisplay:10.37,2013-02-07 15:18:00,
2013-02-07 07:23:00,42.6,38.4,29.90,South,173,16.0,18.4,85,0.00,FEW,,0.00,0.0,WeatherDisplay:10.37,2013-02-07 15:23:00,
2013-02-07 07:28:00,42.5,38.6,29.91,SSE,153,17.4,21.9,86,0.00,FEW,,0.00,5.8,WeatherDisplay:10.37,2013-02-07 15:28:00,
2013-02-07 07:33:00,42.4,38.5,29.91,SSE,154,21.5,24.2,86,0.00,FEW,,0.00,8.0,WeatherDisplay:10.37,2013-02-07 15:33:00,
2013-02-07 07:38:00,42.3,38.4,29.91,SSE,164,18.9,21.9,86,0.01,RA,,0.01,8.0,WeatherDisplay:10.37,2013-02-07 15:38:00,
2013-02-07 07:43:00,42.3,38.7,29.91,SSE,165,20.2,21.9,87,0.01,RA,,0.01,8.0,WeatherDisplay:10.37,2013-02-07 15:43:00,
2013-02-07 07:48:00,42.2,38.6,29.92,SSE,151,19.8,21.9,87,0.01,FEW,,0.01,12.6,WeatherDisplay:10.37,2013-02-07 15:48:00,
2013-02-07 07:53:00,42.2,38.6,29.92,South,175,14.1,15.7,87,0.01,FEW,,0.01,13.8,WeatherDisplay:10.37,2013-02-07 15:53:00,
2013-02-07 07:58:00,42.1,38.8,29.93,South,174,13.0,15.7,88,0.01,FEW,,0.01,26.5,WeatherDisplay:10.37,2013-02-07 15:58:00,
2013-02-07 08:03:00,42.1,38.5,29.93,South,187,12.4,16.1,87,0.01,CLR,,0.01,24.2,WeatherDisplay:10.37,2013-02-07 16:03:00,
2013-02-07 08:08:00,42.0,38.4,29.93,SSW,192,14.5,20.7,87,0.01,CLR,,0.01,26.5,WeatherDisplay:10.37,2013-02-07 16:08:00,
2013-02-07 08:13:00,41.9,39.8,29.94,SSW,193,15.6,17.9,92,0.01,CLR,,0.01,28.7,WeatherDisplay:10.37,2013-02-07 16:13:00,
2013-02-07 08:18:00,41.9,38.6,29.94,South,181,14.5,16.1,88,0.01,FEW,,0.01,44.8,WeatherDisplay:10.37,2013-02-07 16:18:00,
2013-02-07 08:23:00,41.9,38.9,29.94,SSW,207,13.3,16.1,89,0.01,FEW,,0.01,37.9,WeatherDisplay:10.37,2013-02-07 16:23:00,
2013-02-07 08:28:00,41.9,38.9,29.95,SW,229,12.8,17.3,89,0.01,FEW,,0.01,40.3,WeatherDisplay:10.37,2013-02-07 16:28:00,
2013-02-07 08:33:00,41.9,39.2,29.95,SSW,211,13.9,17.3,90,0.01,FEW,,0.01,16.1,WeatherDisplay:10.37,2013-02-07 16:33:00,
2013-02-07 08:38:00,41.8,39.1,29.96,SSW,208,12.4,13.8,90,0.00,FEW,,0.01,16.1,WeatherDisplay:10.37,2013-02-07 16:38:00,
2013-02-07 08:43:00,41.7,39.0,29.96,SSW,207,8.9,12.7,90,0.01,RA,,0.02,16.1,WeatherDisplay:10.37,2013-02-07 16:43:00,
2013-02-07 08:48:00,41.7,39.0,29.96,South,190,8.8,12.7,90,0.01,RA,,0.02,18.4,WeatherDisplay:10.37,2013-02-07 16:48:00,
2013-02-07 08:53:00,41.6,38.9,29.96,SSW,196,8.2,11.5,90,0.02,RA,,0.04,24.2,WeatherDisplay:10.37,2013-02-07 16:53:00,
2013-02-07 08:58:00,41.5,38.8,29.96,South,176,6.0,10.4,90,0.04,RA,,0.07,28.7,WeatherDisplay:10.37,2013-02-07 16:58:00,
2013-02-07 09:03:00,41.4,39.0,29.96,SSW,198,11.0,15.7,91,0.07,RA,,0.08,28.7,WeatherDisplay:10.37,2013-02-07 17:03:00,
2013-02-07 09:08:00,41.3,38.9,29.96,South,186,14.1,15.7,91,0.09,RA,,0.11,28.7,WeatherDisplay:10.37,2013-02-07 17:08:00,
2013-02-07 09:13:00,41.1,38.7,29.97,South,184,12.2,15.0,91,0.12,RA,,0.13,32.2,WeatherDisplay:10.37,2013-02-07 17:13:00,
2013-02-07 09:18:00,41.1,39.0,29.97,SSW,209,12.8,13.8,92,0.14,RA,,0.15,29.9,WeatherDisplay:10.37,2013-02-07 17:18:00,
2013-02-07 09:23:00,40.9,38.5,29.97,South,186,14.8,17.3,91,0.15,RA,,0.16,26.5,WeatherDisplay:10.37,2013-02-07 17:23:00,
2013-02-07 09:28:00,40.7,38.6,29.97,SW,215,14.5,15.0,92,0.17,RA,,0.19,28.7,WeatherDisplay:10.37,2013-02-07 17:28:00,
2013-02-07 09:33:00,40.5,38.1,29.97,SW,223,7.7,15.0,91,0.20,RA,,0.21,32.2,WeatherDisplay:10.37,2013-02-07 17:33:00,
2013-02-07 09:38:00,40.4,38.3,29.98,South,188,8.0,10.4,92,0.20,RA,,0.21,36.8,WeatherDisplay:10.37,2013-02-07 17:38:00,
2013-02-07 09:43:00,40.4,38.3,29.98,SSW,198,8.3,12.7,92,0.19,OVC,,0.21,37.9,WeatherDisplay:10.37,2013-02-07 17:43:00,
2013-02-07 09:48:00,40.5,38.4,29.98,South,171,11.7,12.7,92,0.20,RA,,0.23,40.3,WeatherDisplay:10.37,2013-02-07 17:48:00,
2013-02-07 09:53:00,40.5,38.4,29.98,South,171,9.3,12.3,92,0.20,RA,,0.23,48.3,WeatherDisplay:10.37,2013-02-07 17:53:00,
2013-02-07 09:58:00,40.4,38.3,29.98,South,179,13.4,17.3,92,0.16,OVC,,0.23,62.1,WeatherDisplay:10.37,2013-02-07 17:58:00,
2013-02-07 10:03:00,40.4,38.3,29.99,South,171,10.1,11.5,92,0.14,OVC,,0.23,66.7,WeatherDisplay:10.37,2013-02-07 18:03:00,
2013-02-07 10:08:00,40.5,38.7,29.99,South,171,10.7,13.8,93,0.12,OVC,,0.23,82.8,WeatherDisplay:10.37,2013-02-07 18:08:00,
2013-02-07 10:13:00,40.6,38.8,29.99,SSE,152,12.6,12.7,93,0.10,OVC,,0.23,93.2,WeatherDisplay:10.37,2013-02-07 18:13:00,
2013-02-07 10:18:00,40.7,38.9,29.99,SE,136,8.8,11.5,93,0.09,RA,,0.24,71.3,WeatherDisplay:10.37,2013-02-07 18:18:00,
2013-02-07 10:24:00,40.8,39.0,29.99,ESE,119,13.3,13.8,93,0.07,RA,,0.24,62.1,WeatherDisplay:10.37,2013-02-07 18:24:00,
2013-02-07 10:29:00,41.0,39.2,29.99,SE,137,12.9,15.0,93,0.05,BKN,,0.24,69.0,WeatherDisplay:10.37,2013-02-07 18:29:00,
2013-02-07 10:34:00,41.0,39.2,30.00,SE,134,13.8,13.8,93,0.03,BKN,,0.24,93.2,WeatherDisplay:10.37,2013-02-07 18:34:00,
2013-02-07 10:39:00,41.0,39.2,30.00,SE,146,11.1,12.7,93,0.03,BKN,,0.24,103.5,WeatherDisplay:10.37,2013-02-07 18:39:00,
2013-02-07 10:44:00,41.0,39.2,30.00,SE,145,15.3,16.1,93,0.03,BKN,,0.24,90.8,WeatherDisplay:10.37,2013-02-07 18:44:00,
2013-02-07 10:49:00,41.1,39.0,30.00,SE,144,14.4,16.1,92,0.02,CLR,,0.24,79.4,WeatherDisplay:10.37,2013-02-07 18:49:00,
2013-02-07 10:54:00,41.1,39.0,30.00,SE,146,15.4,17.3,92,0.01,CLR,,0.24,87.4,WeatherDisplay:10.37,2013-02-07 18:54:00,
2013-02-07 10:59:00,41.1,39.0,30.00,SSE,149,11.7,13.8,92,0.01,CLR,,0.24,117.3,WeatherDisplay:10.37,2013-02-07 18:59:00,
2013-02-07 11:04:00,41.1,39.0,30.00,SSE,159,13.0,16.1,92,0.01,FEW,,0.24,131.1,WeatherDisplay:10.37,2013-02-07 19:04:00,
2013-02-07 11:09:00,41.1,39.0,30.01,SSE,157,13.3,17.3,92,0.01,FEW,,0.24,162.1,WeatherDisplay:10.37,2013-02-07 19:09:00,
2013-02-07 11:14:00,41.2,39.1,30.01,SSE,153,10.5,12.7,92,0.01,FEW,,0.24,194.4,WeatherDisplay:10.37,2013-02-07 19:14:00,
2013-02-07 11:19:00,41.3,38.9,30.02,SE,133,7.9,12.7,91,0.00,SCT,,0.24,210.4,WeatherDisplay:10.37,2013-02-07 19:19:00,
2013-02-07 11:24:00,41.5,39.1,30.02,SSE,157,6.9,10.4,91,0.00,SCT,,0.24,205.9,WeatherDisplay:10.37,2013-02-07 19:24:00,
2013-02-07 11:29:00,41.7,39.3,30.02,SSE,159,4.8,5.8,91,0.00,SCT,,0.24,194.4,WeatherDisplay:10.37,2013-02-07 19:29:00,
2013-02-07 11:34:00,41.8,39.4,30.02,SSE,155,6.8,8.1,91,0.00,SCT,,0.24,189.7,WeatherDisplay:10.37,2013-02-07 19:34:00,
2013-02-07 11:39:00,42.0,39.6,30.02,SSE,167,7.6,11.2,91,0.00,SCT,,0.24,176.0,WeatherDisplay:10.37,2013-02-07 19:39:00,
2013-02-07 11:44:00,42.1,39.4,30.02,SSE,163,8.6,11.5,90,0.00,SCT,,0.24,187.4,WeatherDisplay:10.37,2013-02-07 19:44:00,
2013-02-07 11:49:00,42.2,39.5,30.02,SSE,168,5.6,8.1,90,0.00,SCT,,0.24,226.6,WeatherDisplay:10.37,2013-02-07 19:49:00,
2013-02-07 11:54:00,42.3,39.6,30.02,South,179,5.3,6.9,90,0.00,SCT,,0.24,205.9,WeatherDisplay:10.37,2013-02-07 19:54:00,
2013-02-07 11:59:00,42.5,39.5,30.02,SSW,202,7.0,8.1,89,0.00,SCT,,0.24,242.7,WeatherDisplay:10.37,2013-02-07 19:59:00,
2013-02-07 12:04:00,42.6,39.6,30.02,South,175,5.1,5.1,89,0.00,BKN,,0.24,317.4,WeatherDisplay:10.37,2013-02-07 20:04:00,
2013-02-07 12:09:00,42.9,39.9,30.02,SSW,193,7.5,8.1,89,0.00,BKN,,0.24,184.0,WeatherDisplay:10.37,2013-02-07 20:09:00,
2013-02-07 12:14:00,42.9,39.6,30.02,South,173,5.7,8.1,88,0.00,BKN,,0.24,194.4,WeatherDisplay:10.37,2013-02-07 20:14:00,
2013-02-07 12:19:00,43.1,39.8,30.02,SSE,149,5.9,6.9,88,0.00,BKN,,0.24,480.7,WeatherDisplay:10.37,2013-02-07 20:19:00,
2013-02-07 12:24:00,43.4,40.4,30.02,SSW,200,6.9,8.1,89,0.00,BKN,,0.24,450.8,WeatherDisplay:10.37,2013-02-07 20:24:00,
2013-02-07 12:29:00,43.8,40.5,30.02,South,173,2.3,5.8,88,0.00,BKN,,0.24,523.3,WeatherDisplay:10.37,2013-02-07 20:29:00,
2013-02-07 12:34:00,44.2,40.6,30.02,SSW,202,5.4,6.9,87,0.00,BKN,,0.24,519.8,WeatherDisplay:10.37,2013-02-07 20:34:00,
2013-02-07 12:39:00,44.7,40.8,30.02,South,191,3.3,8.1,86,0.00,BKN,,0.24,512.9,WeatherDisplay:10.37,2013-02-07 20:39:00,
2013-02-07 12:44:00,45.2,41.0,30.02,South,182,1.3,5.8,85,0.00,BKN,,0.24,512.9,WeatherDisplay:10.37,2013-02-07 20:44:00,
2013-02-07 12:49:00,45.6,41.1,30.02,SSE,147,1.0,3.5,84,0.00,BKN,,0.24,511.8,WeatherDisplay:10.37,2013-02-07 20:49:00,
2013-02-07 12:54:00,46.1,41.9,30.02,SSE,147,0.3,1.1,85,0.00,BKN,,0.24,511.8,WeatherDisplay:10.37,2013-02-07 20:54:00,
2013-02-07 12:59:00,46.8,42.2,30.02,SSE,147,0.0,0.0,84,0.00,BKN,,0.24,512.9,WeatherDisplay:10.37,2013-02-07 20:59:00,
2013-02-07 13:04:00,47.6,43.0,30.02,SE,127,4.0,4.6,84,0.00,BKN,,0.24,511.8,WeatherDisplay:10.37,2013-02-07 21:04:00,
2013-02-07 13:09:00,48.2,42.7,30.02,South,175,4.2,4.6,81,0.00,BKN,,0.24,509.5,WeatherDisplay:10.37,2013-02-07 21:09:00,
2013-02-07 13:14:00,48.6,42.1,30.02,SE,144,4.5,5.8,78,0.00,BKN,,0.24,507.1,WeatherDisplay:10.37,2013-02-07 21:14:00,
2013-02-07 13:19:00,49.0,42.1,30.02,SE,146,3.4,6.9,77,0.00,BKN,,0.24,512.9,WeatherDisplay:10.37,2013-02-07 21:19:00,
2013-02-07 13:24:00,49.0,41.1,30.02,South,176,3.1,5.8,74,0.00,BKN,,0.24,499.1,WeatherDisplay:10.37,2013-02-07 21:24:00,
2013-02-07 13:29:00,49.0,40.7,30.01,South,178,3.5,6.9,73,0.00,BKN,,0.24,491.1,WeatherDisplay:10.37,2013-02-07 21:29:00,
2013-02-07 13:34:00,49.0,40.7,30.02,South,171,1.8,5.6,73,0.00,FEW,,0.24,485.3,WeatherDisplay:10.37,2013-02-07 21:34:00,
2013-02-07 13:39:00,49.0,40.4,30.02,SSW,195,4.6,5.8,72,0.00,FEW,,0.24,487.6,WeatherDisplay:10.37,2013-02-07 21:39:00,
2013-02-07 13:44:00,48.9,40.3,30.02,SSW,192,4.9,5.8,72,0.00,FEW,,0.24,480.7,WeatherDisplay:10.37,2013-02-07 21:44:00,
2013-02-07 13:49:00,48.8,41.2,30.02,SW,219,9.0,10.1,75,0.00,CLR,,0.24,472.7,WeatherDisplay:10.37,2013-02-07 21:49:00,
2013-02-07 13:54:00,48.6,41.1,30.02,SW,219,5.9,8.1,75,0.00,CLR,,0.24,461.1,WeatherDisplay:10.37,2013-02-07 21:54:00,
2013-02-07 13:59:00,48.3,40.4,30.02,SW,219,5.7,6.9,74,0.00,CLR,,0.24,453.1,WeatherDisplay:10.37,2013-02-07 21:59:00,
2013-02-07 14:04:00,48.3,40.8,30.02,WSW,243,6.3,6.9,75,0.00,CLR,,0.24,446.2,WeatherDisplay:10.37,2013-02-07 22:04:00,
2013-02-07 14:09:00,48.1,40.9,30.02,WSW,246,4.8,4.8,76,0.00,CLR,,0.24,437.0,WeatherDisplay:10.37,2013-02-07 22:09:00,
2013-02-07 14:14:00,48.1,40.9,30.02,SW,226,5.3,5.8,76,0.00,CLR,,0.24,430.1,WeatherDisplay:10.37,2013-02-07 22:14:00,
2013-02-07 14:19:00,48.0,40.1,30.02,SSW,206,3.2,4.6,74,0.00,FEW,,0.24,424.4,WeatherDisplay:10.37,2013-02-07 22:19:00,
2013-02-07 14:24:00,47.9,40.0,30.02,SSW,213,0.0,2.3,74,0.00,FEW,,0.24,416.3,WeatherDisplay:10.37,2013-02-07 22:24:00,
2013-02-07 14:29:00,48.0,40.5,30.02,SW,224,1.7,3.5,75,0.00,FEW,,0.24,410.5,WeatherDisplay:10.37,2013-02-07 22:29:00,
2013-02-07 14:34:00,48.1,40.2,30.03,SW,236,0.0,0.0,74,0.00,FEW,,0.24,404.8,WeatherDisplay:10.37,2013-02-07 22:34:00,
2013-02-07 14:39:00,48.2,40.7,30.03,SW,236,1.1,3.5,75,0.00,FEW,,0.24,424.4,WeatherDisplay:10.37,2013-02-07 22:39:00,
2013-02-07 14:44:00,48.2,40.3,30.03,SW,236,1.0,2.3,74,0.00,FEW,,0.24,264.5,WeatherDisplay:10.37,2013-02-07 22:44:00,
2013-02-07 14:49:00,48.2,40.0,30.03,SW,236,0.0,0.0,73,0.00,CLR,,0.24,388.7,WeatherDisplay:10.37,2013-02-07 22:49:00,
2013-02-07 14:54:00,48.2,39.6,30.03,SW,233,1.0,2.3,72,0.00,CLR,,0.24,373.7,WeatherDisplay:10.37,2013-02-07 22:54:00,
2013-02-07 14:59:00,48.3,39.7,30.03,SSW,207,0.5,1.1,72,0.00,CLR,,0.24,365.7,WeatherDisplay:10.37,2013-02-07 22:59:00,
2013-02-07 15:04:00,48.5,40.6,30.03,SSW,206,0.0,2.0,74,0.00,CLR,,0.24,386.4,WeatherDisplay:10.37,2013-02-07 23:04:00,
2013-02-07 15:09:00,49.0,41.1,30.03,SSW,192,0.0,0.0,74,0.00,CLR,,0.24,400.2,WeatherDisplay:10.37,2013-02-07 23:09:00,
2013-02-07 15:14:00,49.2,39.8,30.03,South,188,1.3,3.5,70,0.00,CLR,,0.24,346.1,WeatherDisplay:10.37,2013-02-07 23:14:00,
2013-02-07 15:19:00,49.2,39.5,30.03,South,173,3.7,4.6,69,0.00,CLR,,0.24,307.0,WeatherDisplay:10.37,2013-02-07 23:19:00,
2013-02-07 15:24:00,49.2,40.2,30.03,South,170,2.0,5.0,71,0.00,CLR,,0.24,293.3,WeatherDisplay:10.37,2013-02-07 23:24:00,
2013-02-07 15:29:00,49.3,40.3,30.03,SSE,157,2.7,3.5,71,0.00,CLR,,0.24,274.8,WeatherDisplay:10.37,2013-02-07 23:29:00,
2013-02-07 15:34:00,49.3,39.9,30.03,SSE,157,2.0,5.0,70,0.00,CLR,,0.24,256.4,WeatherDisplay:10.37,2013-02-07 23:34:00,
2013-02-07 15:39:00,49.3,40.7,30.03,SSE,157,2.0,5.0,72,0.00,CLR,,0.24,248.4,WeatherDisplay:10.37,2013-02-07 23:39:00,
2013-02-07 15:44:00,49.4,41.5,30.03,SSE,156,0.5,2.3,74,0.00,CLR,,0.24,236.9,WeatherDisplay:10.37,2013-02-07 23:44:00,
2013-02-07 15:49:00,49.7,42.1,30.04,SSE,156,0.0,0.0,75,0.00,CLR,,0.24,222.0,WeatherDisplay:10.37,2013-02-07 23:49:00,
2013-02-07 15:54:00,49.8,41.9,30.04,SSE,156,0.0,0.0,74,0.00,CLR,,0.24,210.4,WeatherDisplay:10.37,2013-02-07 23:54:00,
2013-02-07 15:59:00,49.7,42.1,30.04,SSE,156,0.0,0.0,75,0.00,CLR,,0.24,196.6,WeatherDisplay:10.37,2013-02-07 23:59:00,
2013-02-07 16:04:00,49.6,41.3,30.04,SSE,156,0.0,0.0,73,0.00,CLR,,0.24,181.7,WeatherDisplay:10.37,2013-02-08 00:04:00,
2013-02-07 16:09:00,49.4,41.1,30.04,SSE,156,0.0,0.0,73,0.00,CLR,,0.24,170.2,WeatherDisplay:10.37,2013-02-08 00:09:00,
2013-02-07 16:14:00,49.4,41.1,30.05,SSE,156,0.0,0.0,73,0.00,CLR,,0.24,155.3,WeatherDisplay:10.37,2013-02-08 00:14:00,
2013-02-07 16:19:00,49.2,40.6,30.05,SSE,156,0.0,0.0,72,0.00,CLR,,0.24,143.8,WeatherDisplay:10.37,2013-02-08 00:19:00,
2013-02-07 16:24:00,49.1,40.5,30.05,SSE,156,0.0,0.0,72,0.00,CLR,,0.24,115.0,WeatherDisplay:10.37,2013-02-08 00:24:00,
2013-02-07 16:29:00,49.0,39.3,30.05,SSE,156,0.0,0.0,69,0.00,CLR,,0.24,85.1,WeatherDisplay:10.37,2013-02-08 00:29:00,
2013-02-07 16:35:00,48.8,39.1,30.05,SSE,156,0.0,0.0,69,0.00,CLR,,0.24,66.7,WeatherDisplay:10.37,2013-02-08 00:35:00,
2013-02-07 16:40:00,48.6,39.3,30.05,South,184,3.6,4.6,70,0.00,CLR,,0.24,64.4,WeatherDisplay:10.37,2013-02-08 00:40:00,
2013-02-07 16:45:00,48.3,39.3,30.05,SSW,207,1.4,3.5,71,0.00,CLR,,0.24,62.1,WeatherDisplay:10.37,2013-02-08 00:45:00,
2013-02-07 16:50:00,48.1,39.5,30.05,SW,215,0.0,1.1,72,0.00,CLR,,0.24,54.0,WeatherDisplay:10.37,2013-02-08 00:50:00,
2013-02-07 16:55:00,47.7,39.5,30.05,SW,215,0.7,2.2,73,0.00,CLR,,0.24,46.0,WeatherDisplay:10.37,2013-02-08 00:55:00,
2013-02-07 17:00:00,47.4,39.2,30.05,SW,215,0.0,0.0,73,0.00,CLR,,0.24,34.5,WeatherDisplay:10.37,2013-02-08 01:00:00,
2013-02-07 17:05:00,47.2,39.4,30.06,SW,215,0.6,2.3,74,0.00,CLR,,0.24,24.2,WeatherDisplay:10.37,2013-02-08 01:05:00,
2013-02-07 17:10:00,46.9,39.1,30.06,SW,215,0.0,0.0,74,0.00,CLR,,0.24,18.4,WeatherDisplay:10.37,2013-02-08 01:10:00,
2013-02-07 17:15:00,46.7,38.9,30.06,SW,215,0.0,0.0,74,0.00,CLR,,0.24,13.8,WeatherDisplay:10.37,2013-02-08 01:15:00,
2013-02-07 17:20:00,46.4,38.9,30.06,SW,215,0.0,0.0,75,0.00,FEW,,0.24,12.6,WeatherDisplay:10.37,2013-02-08 01:20:00,
2013-02-07 17:25:00,46.1,38.6,30.06,SW,215,0.0,0.0,75,0.00,FEW,,0.24,8.0,WeatherDisplay:10.37,2013-02-08 01:25:00,
2013-02-07 17:30:00,45.7,38.2,30.07,SW,215,0.0,0.0,75,0.00,FEW,,0.24,8.0,WeatherDisplay:10.37,2013-02-08 01:30:00,
2013-02-07 17:35:00,45.4,38.3,30.07,SW,215,0.0,0.0,76,0.00,FEW,,0.24,5.8,WeatherDisplay:10.37,2013-02-08 01:35:00,
2013-02-07 17:40:00,45.0,38.2,30.07,SW,215,0.0,0.0,77,0.00,FEW,,0.24,5.8,WeatherDisplay:10.37,2013-02-08 01:40:00,
2013-02-07 17:45:00,44.6,38.2,30.07,SW,215,0.0,0.0,78,0.00,FEW,,0.24,0.0,WeatherDisplay:10.37,2013-02-08 01:45:00,
2013-02-07 17:50:00,44.1,37.7,30.08,SW,215,0.0,0.0,78,0.00,CLR,,0.24,0.0,WeatherDisplay:10.37,2013-02-08 01:50:00,
2013-02-07 17:55:00,43.6,36.9,30.08,SW,215,0.0,0.0,77,0.00,CLR,,0.24,0.0,WeatherDisplay:10.37,2013-02-08 01:55:00,
2013-02-07 18:00:00,43.1,36.7,30.08,SW,215,0.0,0.0,78,0.00,CLR,,0.24,0.0,WeatherDisplay:10.37,2013-02-08 02:00:00,
2013-02-07 18:05:00,42.7,36.3,30.08,SW,215,0.0,0.0,78,0.00,CLR,,0.24,0.0,WeatherDisplay:10.37,2013-02-08 02:05:00,
2013-02-07 18:10:00,42.2,35.9,30.08,SW,215,0.0,0.0,78,0.00,CLR,,0.24,0.0,WeatherDisplay:10.37,2013-02-08 02:10:00,
2013-02-07 18:15:00,41.7,35.4,30.08,SW,215,0.0,0.0,78,0.00,CLR,,0.24,0.0,WeatherDisplay:10.37,2013-02-08 02:15:00,
2013-02-07 18:20:00,41.3,35.3,30.08,SW,215,0.0,0.0,79,0.00,CLR,,0.24,0.0,WeatherDisplay:10.37,2013-02-08 02:20:00,
2013-02-07 18:25:00,40.8,34.8,30.08,SW,215,0.0,0.0,79,0.00,CLR,,0.24,0.0,WeatherDisplay:10.37,2013-02-08 02:25:00,
2013-02-07 18:30:00,40.4,34.7,30.08,SW,215,0.0,0.0,80,0.00,CLR,,0.24,0.0,WeatherDisplay:10.37,2013-02-08 02:30:00,
2013-02-07 18:35:00,40.0,34.3,30.08,SSE,161,0.0,0.0,80,0.00,CLR,,0.24,0.0,WeatherDisplay:10.37,2013-02-08 02:35:00,
2013-02-07 18:40:00,39.5,33.9,30.09,SSE,161,0.0,0.0,80,0.00,CLR,,0.24,0.0,WeatherDisplay:10.37,2013-02-08 02:40:00,
2013-02-07 18:45:00,39.1,33.8,30.09,SSE,161,0.0,0.0,81,0.00,CLR,,0.24,0.0,WeatherDisplay:10.37,2013-02-08 02:45:00,
2013-02-07 18:50:00,38.9,33.9,30.09,SSE,161,0.0,0.0,82,0.00,CLR,,0.24,0.0,WeatherDisplay:10.37,2013-02-08 02:50:00,
2013-02-07 18:55:00,38.6,33.6,30.09,SSE,161,0.0,0.0,82,0.00,CLR,,0.24,0.0,WeatherDisplay:10.37,2013-02-08 02:55:00,
2013-02-07 19:00:00,38.4,33.7,30.09,SSE,161,0.6,2.3,83,0.00,CLR,,0.24,0.0,WeatherDisplay:10.37,2013-02-08 03:00:00,
2013-02-07 19:05:00,38.1,33.4,30.09,SSE,161,0.0,0.0,83,0.00,CLR,,0.24,0.0,WeatherDisplay:10.37,2013-02-08 03:05:00,
2013-02-07 19:10:00,37.8,33.4,30.09,SSE,161,0.0,0.0,84,0.00,CLR,,0.24,0.0,WeatherDisplay:10.37,2013-02-08 03:10:00,
2013-02-07 19:15:00,37.6,33.2,30.10,SSE,161,0.0,0.0,84,0.00,CLR,,0.24,0.0,WeatherDisplay:10.37,2013-02-08 03:15:00,
2013-02-07 19:20:00,37.5,33.1,30.10,SSE,161,0.0,0.0,84,0.00,CLR,,0.24,0.0,WeatherDisplay:10.37,2013-02-08 03:20:00,
2013-02-07 19:25:00,37.3,33.2,30.10,SSE,161,0.0,0.0,85,0.00,CLR,,0.24,0.0,WeatherDisplay:10.37,2013-02-08 03:25:00,
2013-02-07 19:30:00,37.1,33.0,30.10,SSE,161,0.0,0.0,85,0.00,CLR,,0.24,0.0,WeatherDisplay:10.37,2013-02-08 03:30:00,
2013-02-07 19:35:00,36.9,33.1,30.10,SSE,161,0.0,0.0,86,0.00,CLR,,0.24,0.0,WeatherDisplay:10.37,2013-02-08 03:35:00,
2013-02-07 19:40:00,36.8,33.0,30.11,SSE,161,0.0,0.0,86,0.00,CLR,,0.24,0.0,WeatherDisplay:10.37,2013-02-08 03:40:00,
2013-02-07 19:45:00,36.6,32.8,30.11,SSE,161,0.0,0.0,86,0.00,CLR,,0.24,0.0,WeatherDisplay:10.37,2013-02-08 03:45:00,
2013-02-07 19:50:00,36.5,32.7,30.11,SSE,161,1.2,2.3,86,0.00,CLR,,0.24,0.0,WeatherDisplay:10.37,2013-02-08 03:50:00,
2013-02-07 19:55:00,36.3,32.5,30.11,SSE,161,0.0,0.0,86,0.00,CLR,,0.24,0.0,WeatherDisplay:10.37,2013-02-08 03:55:00,
2013-02-07 20:00:00,36.1,32.3,30.11,SSE,161,0.0,0.0,86,0.00,CLR,,0.24,0.0,WeatherDisplay:10.37,2013-02-08 04:00:00,
2013-02-07 20:05:00,36.0,32.5,30.11,SSE,161,0.0,0.0,87,0.00,CLR,,0.24,0.0,WeatherDisplay:10.37,2013-02-08 04:05:00,
2013-02-07 20:10:00,35.8,32.0,30.12,SSE,161,0.0,0.0,86,0.00,CLR,,0.24,0.0,WeatherDisplay:10.37,2013-02-08 04:10:00,
2013-02-07 20:15:00,35.7,32.2,30.12,SSE,161,0.0,0.0,87,0.00,CLR,,0.24,0.0,WeatherDisplay:10.37,2013-02-08 04:15:00,
2013-02-07 20:20:00,35.6,32.1,30.13,SSE,161,0.0,0.0,87,0.00,CLR,,0.24,0.0,WeatherDisplay:10.37,2013-02-08 04:20:00,
2013-02-07 20:25:00,35.4,31.9,30.13,SSE,161,0.0,0.0,87,0.00,CLR,,0.24,0.0,WeatherDisplay:10.37,2013-02-08 04:25:00,
2013-02-07 20:30:00,35.3,32.1,30.13,SSE,161,0.0,0.0,88,0.00,CLR,,0.24,0.0,WeatherDisplay:10.37,2013-02-08 04:30:00,
2013-02-07 20:35:00,35.2,32.0,30.13,SSE,161,0.0,0.0,88,0.00,CLR,,0.24,0.0,WeatherDisplay:10.37,2013-02-08 04:35:00,
2013-02-07 20:40:00,35.0,31.8,30.13,SE,145,2.4,3.5,88,0.00,CLR,,0.24,0.0,WeatherDisplay:10.37,2013-02-08 04:40:00,
2013-02-07 20:45:00,34.9,31.7,30.13,SE,145,0.0,0.0,88,0.00,CLR,,0.24,0.0,WeatherDisplay:10.37,2013-02-08 04:45:00,
2013-02-07 20:50:00,34.8,31.6,30.13,SE,145,0.0,0.0,88,0.00,CLR,,0.24,0.0,WeatherDisplay:10.37,2013-02-08 04:50:00,
2013-02-07 20:56:00,34.7,31.5,30.13,SE,145,0.0,0.0,88,0.00,CLR,,0.24,0.0,WeatherDisplay:10.37,2013-02-08 04:56:00,
2013-02-07 21:00:00,34.6,31.7,30.13,SE,145,0.0,0.0,89,0.00,CLR,,0.24,0.0,WeatherDisplay:10.37,2013-02-08 05:00:00,
2013-02-07 21:05:00,34.6,31.7,30.14,SE,141,0.0,0.0,89,0.00,CLR,,0.24,0.0,WeatherDisplay:10.37,2013-02-08 05:05:00,
2013-02-07 21:10:00,34.5,31.6,30.14,SE,141,0.0,0.0,89,0.00,CLR,,0.24,0.0,WeatherDisplay:10.37,2013-02-08 05:10:00,
2013-02-07 21:15:00,34.4,31.5,30.14,SE,141,0.0,0.0,89,0.00,CLR,,0.24,0.0,WeatherDisplay:10.37,2013-02-08 05:15:00,
2013-02-07 21:20:00,34.4,31.8,30.14,SE,141,0.0,0.0,90,0.00,CLR,,0.24,0.0,WeatherDisplay:10.37,2013-02-08 05:20:00,
2013-02-07 21:25:00,34.3,31.7,30.14,SE,141,0.0,0.0,90,0.00,CLR,,0.24,0.0,WeatherDisplay:10.37,2013-02-08 05:25:00,
2013-02-07 21:30:00,34.2,31.3,30.15,SE,142,0.0,0.0,89,0.00,CLR,,0.24,0.0,WeatherDisplay:10.37,2013-02-08 05:30:00,
2013-02-07 21:35:00,34.1,31.2,30.15,SE,142,0.0,0.0,89,0.00,CLR,,0.24,0.0,WeatherDisplay:10.37,2013-02-08 05:35:00,
2013-02-07 21:40:00,33.9,31.0,30.15,SE,141,0.0,0.0,89,0.00,CLR,,0.24,0.0,WeatherDisplay:10.37,2013-02-08 05:40:00,
2013-02-07 21:45:00,33.8,30.9,30.16,SE,141,0.0,0.0,89,0.00,CLR,,0.24,0.0,WeatherDisplay:10.37,2013-02-08 05:45:00,
2013-02-07 21:50:00,33.7,30.8,30.16,SE,141,0.0,0.0,89,0.00,CLR,,0.24,0.0,WeatherDisplay:10.37,2013-02-08 05:50:00,
2013-02-07 21:55:00,33.5,30.6,30.16,SE,141,0.0,0.0,89,0.00,CLR,,0.24,0.0,WeatherDisplay:10.37,2013-02-08 05:55:00,
2013-02-07 22:00:00,33.4,30.8,30.16,SE,141,0.0,0.0,90,0.00,CLR,,0.24,0.0,WeatherDisplay:10.37,2013-02-08 06:00:00,
2013-02-07 22:06:00,33.3,30.7,30.16,SE,142,0.0,0.0,90,0.00,CLR,,0.24,0.0,WeatherDisplay:10.37,2013-02-08 06:06:00,
2013-02-07 22:11:00,33.3,30.7,30.16,SE,141,0.0,0.0,90,0.00,CLR,,0.24,0.0,WeatherDisplay:10.37,2013-02-08 06:11:00,
2013-02-07 22:16:00,33.2,30.6,30.16,SE,141,0.0,0.0,90,0.00,CLR,,0.24,0.0,WeatherDisplay:10.37,2013-02-08 06:16:00,
2013-02-07 22:21:00,33.2,30.9,30.17,SE,141,0.0,0.0,91,0.00,CLR,,0.24,0.0,WeatherDisplay:10.37,2013-02-08 06:21:00,
2013-02-07 22:26:00,33.2,30.9,30.17,SE,142,0.0,0.0,91,0.00,CLR,,0.24,0.0,WeatherDisplay:10.37,2013-02-08 06:26:00,
2013-02-07 22:31:00,33.1,30.8,30.17,SE,141,0.0,0.0,91,0.00,CLR,,0.24,0.0,WeatherDisplay:10.37,2013-02-08 06:31:00,
2013-02-07 22:36:00,33.1,30.8,30.17,SE,141,0.0,0.0,91,0.00,CLR,,0.24,0.0,WeatherDisplay:10.37,2013-02-08 06:36:00,
2013-02-07 22:41:00,33.1,30.8,30.17,SE,141,0.0,0.0,91,0.00,CLR,,0.24,0.0,WeatherDisplay:10.37,2013-02-08 06:41:00,
2013-02-07 22:46:00,33.0,30.7,30.17,SE,142,0.0,0.0,91,0.00,FEW,,0.24,0.0,WeatherDisplay:10.37,2013-02-08 06:46:00,
2013-02-07 22:51:00,33.0,30.7,30.17,SE,141,0.0,0.0,91,0.00,FEW,,0.24,0.0,WeatherDisplay:10.37,2013-02-08 06:51:00,
2013-02-07 22:56:00,32.9,30.6,30.17,SE,141,0.0,0.0,91,0.00,FEW,,0.24,0.0,WeatherDisplay:10.37,2013-02-08 06:56:00,
2013-02-07 23:01:00,32.8,30.5,30.17,SE,141,0.0,0.0,91,0.00,FEW,,0.24,0.0,WeatherDisplay:10.37,2013-02-08 07:01:00,
2013-02-07 23:06:00,32.7,30.4,30.17,SE,141,0.0,0.0,91,0.00,FEW,,0.24,0.0,WeatherDisplay:10.37,2013-02-08 07:06:00,
2013-02-07 23:11:00,32.7,30.7,30.17,SE,141,0.0,0.0,92,0.00,FEW,,0.24,0.0,WeatherDisplay:10.37,2013-02-08 07:11:00,
2013-02-07 23:16:00,32.6,30.6,30.17,SE,141,1.8,2.3,92,0.00,CLR,,0.24,0.0,WeatherDisplay:10.37,2013-02-08 07:16:00,
2013-02-07 23:21:00,32.5,30.5,30.17,SE,141,1.9,3.5,92,0.00,CLR,,0.24,0.0,WeatherDisplay:10.37,2013-02-08 07:21:00,
2013-02-07 23:26:00,32.5,30.5,30.17,SE,141,3.0,4.6,92,0.00,CLR,,0.24,0.0,WeatherDisplay:10.37,2013-02-08 07:26:00,
2013-02-07 23:31:00,32.5,30.5,30.17,SE,144,2.7,3.5,92,0.00,CLR,,0.24,0.0,WeatherDisplay:10.37,2013-02-08 07:31:00,
2013-02-07 23:36:00,32.6,30.8,30.17,ESE,115,2.9,5.8,93,0.00,CLR,,0.24,0.0,WeatherDisplay:10.37,2013-02-08 07:36:00,
2013-02-07 23:41:00,32.7,30.9,30.17,ESE,115,0.8,2.2,93,0.00,CLR,,0.24,0.0,WeatherDisplay:10.37,2013-02-08 07:41:00,
2013-02-07 23:46:00,32.7,30.9,30.18,ESE,117,1.9,3.5,93,0.00,CLR,,0.24,0.0,WeatherDisplay:10.37,2013-02-08 07:46:00,
2013-02-07 23:51:00,32.8,31.0,30.18,ESE,117,2.5,3.5,93,0.00,CLR,,0.24,0.0,WeatherDisplay:10.37,2013-02-08 07:51:00,
2013-02-07 23:56:00,32.9,31.4,30.18,ESE,117,3.0,3.5,94,0.00,CLR,,0.24,0.0,WeatherDisplay:10.37,2013-02-08 07:56:00,